Terminal Aerodrome Forecast
Issued by NWS

Home | Current Version | Previous Version | Text Only | Print | Product List | Glossary On
Versions: 1 2 3 4 5 6 7 8 9 10 11 12 13
092
FTUS42 TJSJ 072345
TAFNCM
TAF
TNCM 072345Z 0800/0824 09010KT P6SM SCT021
     FM081400 07012KT P6SM SCT025=

USA.gov is the U.S. government's official web portal to all federal, state and local government web resources and services.